createdAt,value
2022-09-30T00:00:26.654Z,19.05
2022-09-30T00:03:29.046Z,19.11
2022-09-30T00:06:32.011Z,19.12
2022-09-30T00:09:33.996Z,19.08
2022-09-30T00:12:36.033Z,19.11
2022-09-30T00:15:38.093Z,19.07
2022-09-30T00:18:41.400Z,18.97
2022-09-30T00:21:43.466Z,19.00
2022-09-30T00:24:46.604Z,18.94
2022-09-30T00:27:48.582Z,19.01
2022-09-30T00:30:50.570Z,19.04
2022-09-30T00:34:08.315Z,18.99
2022-09-30T00:37:11.793Z,19.04
2022-09-30T00:40:13.717Z,19.06
2022-09-30T00:43:20.681Z,19.05
2022-09-30T00:46:44.849Z,19.02
2022-09-30T00:49:47.243Z,19.05
2022-09-30T00:52:55.895Z,19.08
2022-09-30T00:55:59.463Z,19.13
2022-09-30T00:59:22.321Z,19.04
2022-09-30T01:02:24.683Z,18.94
2022-09-30T01:05:27.567Z,18.88
2022-09-30T01:08:32.647Z,18.95
2022-09-30T01:11:34.701Z,18.95
2022-09-30T01:14:37.705Z,18.94
2022-09-30T01:18:07.455Z,19.04
2022-09-30T01:21:27.416Z,19.10
2022-09-30T01:25:00.144Z,19.16
2022-09-30T01:28:05.037Z,19.21
2022-09-30T01:31:33.875Z,19.23
2022-09-30T01:35:00.181Z,19.24
2022-09-30T01:38:17.272Z,19.02
2022-09-30T01:41:26.368Z,19.19
2022-09-30T01:44:42.463Z,19.21
2022-09-30T01:47:50.054Z,19.18
2022-09-30T01:51:22.206Z,19.12
2022-09-30T01:54:34.468Z,19.04
2022-09-30T01:57:48.389Z,19.05
2022-09-30T02:00:55.199Z,19.10
2022-09-30T02:04:02.165Z,19.11
2022-09-30T02:07:11.693Z,19.19
2022-09-30T02:10:22.301Z,19.21
2022-09-30T02:13:57.743Z,19.22
2022-09-30T02:17:06.175Z,19.15
2022-09-30T02:20:12.926Z,19.19
2022-09-30T02:23:36.093Z,19.16
2022-09-30T02:26:42.155Z,19.14
2022-09-30T02:29:50.323Z,19.14
2022-09-30T02:33:08.072Z,19.18
2022-09-30T02:36:43.777Z,19.21
2022-09-30T02:39:53.104Z,19.22
2022-09-30T02:42:55.579Z,19.17
2022-09-30T02:46:20.792Z,19.24
2022-09-30T02:49:38.305Z,19.23
2022-09-30T02:52:46.070Z,19.26
2022-09-30T02:55:53.734Z,19.26
2022-09-30T02:58:57.371Z,19.22
2022-09-30T03:01:59.333Z,19.14
2022-09-30T03:05:01.595Z,19.09
2022-09-30T03:08:03.768Z,19.09
2022-09-30T03:11:06.893Z,19.04
2022-09-30T03:14:17.233Z,19.01
2022-09-30T03:17:21.841Z,18.94
2022-09-30T03:20:47.091Z,18.96
2022-09-30T03:23:54.719Z,19.00
2022-09-30T03:27:12.295Z,19.04
2022-09-30T03:30:21.076Z,18.94
2022-09-30T03:33:28.142Z,19.04
2022-09-30T03:36:48.511Z,19.08
2022-09-30T03:40:10.258Z,19.04
2022-09-30T03:43:35.748Z,19.19
2022-09-30T03:46:46.711Z,19.11
2022-09-30T03:50:00.629Z,19.18
2022-09-30T03:53:03.835Z,19.14
2022-09-30T03:56:06.211Z,19.19
2022-09-30T03:59:11.956Z,19.14
2022-09-30T04:02:13.999Z,19.16
2022-09-30T04:05:16.108Z,19.09
2022-09-30T04:08:18.161Z,19.12
2022-09-30T04:11:20.427Z,19.10
2022-09-30T04:14:22.481Z,19.10
2022-09-30T04:17:24.610Z,19.07
2022-09-30T04:20:26.676Z,19.07
2022-09-30T04:23:28.722Z,19.01
2022-09-30T04:26:30.691Z,19.08
2022-09-30T04:29:32.682Z,19.13
2022-09-30T04:32:34.721Z,19.17
2022-09-30T04:35:39.900Z,19.10
2022-09-30T04:38:41.974Z,19.10
2022-09-30T04:41:44.074Z,19.13
2022-09-30T04:44:45.949Z,19.15
2022-09-30T04:47:48.189Z,19.18
2022-09-30T04:50:50.731Z,19.21
2022-09-30T04:53:53.116Z,19.21
2022-09-30T04:56:55.088Z,19.24
2022-09-30T04:59:57.111Z,19.26
2022-09-30T05:02:59.140Z,19.26
2022-09-30T05:06:01.725Z,19.28
2022-09-30T05:09:03.819Z,19.30
2022-09-30T05:12:06.036Z,19.26
2022-09-30T05:15:09.561Z,19.28
2022-09-30T05:18:11.884Z,19.36
2022-09-30T05:21:16.888Z,19.36
2022-09-30T05:24:18.998Z,19.34
2022-09-30T05:27:20.969Z,19.38
2022-09-30T05:30:22.910Z,19.38
2022-09-30T05:33:25.656Z,19.38
2022-09-30T05:36:27.966Z,19.42
2022-09-30T05:39:29.995Z,19.35
2022-09-30T05:42:33.503Z,19.29
2022-09-30T05:45:35.481Z,19.31
2022-09-30T05:48:37.482Z,19.31
2022-09-30T05:51:39.515Z,19.30
2022-09-30T05:54:41.475Z,19.35
2022-09-30T05:57:44.022Z,19.38
2022-09-30T06:00:47.848Z,19.43
2022-09-30T06:03:50.166Z,19.42
2022-09-30T06:06:52.129Z,19.43
2022-09-30T06:09:54.088Z,19.42
2022-09-30T06:12:56.125Z,19.45
2022-09-30T06:16:02.419Z,19.40
2022-09-30T06:19:04.466Z,19.47
2022-09-30T06:22:06.426Z,19.51
2022-09-30T06:25:08.722Z,19.49
2022-09-30T06:28:10.680Z,19.48
2022-09-30T06:31:12.956Z,19.54
2022-09-30T06:34:14.938Z,19.56
2022-09-30T06:37:18.619Z,19.54
2022-09-30T06:40:24.918Z,19.47
2022-09-30T06:43:27.318Z,19.49
2022-09-30T06:46:31.240Z,19.48
2022-09-30T06:49:47.075Z,19.46
2022-09-30T06:52:51.641Z,19.46
2022-09-30T06:55:57.864Z,19.50
2022-09-30T06:58:59.863Z,19.46
2022-09-30T07:02:01.957Z,19.53
2022-09-30T07:05:04.355Z,19.36
2022-09-30T07:08:06.309Z,19.39
2022-09-30T07:11:17.369Z,19.44
2022-09-30T07:14:19.349Z,19.47
2022-09-30T07:17:21.354Z,19.51
2022-09-30T07:20:23.909Z,19.54
2022-09-30T07:23:28.662Z,19.56
2022-09-30T07:26:31.251Z,19.49
2022-09-30T07:29:56.577Z,19.59
2022-09-30T07:32:56.080Z,19.59
2022-09-30T07:36:00.380Z,19.64
2022-09-30T07:39:06.183Z,19.66
2022-09-30T07:42:09.416Z,19.68
2022-09-30T07:45:14.874Z,19.70
2022-09-30T07:48:49.354Z,19.71
2022-09-30T07:52:01.790Z,19.74
2022-09-30T07:55:04.071Z,19.71
2022-09-30T07:58:07.903Z,19.68
2022-09-30T08:01:10.604Z,19.72
2022-09-30T08:04:13.141Z,19.77
2022-09-30T08:07:16.997Z,19.72
2022-09-30T08:13:25.824Z,19.69
2022-09-30T08:16:28.523Z,19.79
2022-09-30T08:19:31.520Z,19.67
2022-09-30T08:22:33.502Z,19.87
2022-09-30T08:25:36.161Z,19.89
2022-09-30T08:28:39.772Z,19.91
2022-09-30T08:31:41.912Z,19.94
2022-09-30T08:34:43.916Z,19.99
2022-09-30T08:37:46.007Z,20.02
2022-09-30T08:41:03.387Z,20.05
2022-09-30T08:44:39.427Z,20.07
2022-09-30T08:47:49.382Z,19.93
2022-09-30T08:51:21.222Z,20.12
2022-09-30T08:54:26.273Z,20.13
2022-09-30T08:57:35.456Z,20.15
2022-09-30T09:00:40.562Z,20.20
2022-09-30T09:03:43.157Z,20.23
2022-09-30T09:07:06.266Z,20.26
2022-09-30T09:10:18.095Z,20.29
2022-09-30T09:13:31.739Z,20.34
2022-09-30T09:16:50.115Z,20.37
2022-09-30T09:20:04.763Z,20.36
2022-09-30T09:23:10.972Z,20.37
2022-09-30T09:26:15.207Z,20.37
2022-09-30T09:29:31.679Z,20.45
2022-09-30T09:32:35.878Z,20.44
2022-09-30T09:35:57.922Z,20.52
2022-09-30T09:39:37.129Z,20.55
2022-09-30T09:42:58.259Z,20.60
2022-09-30T09:46:12.274Z,20.59
2022-09-30T09:49:16.092Z,20.64
2022-09-30T09:52:35.938Z,20.66
2022-09-30T09:55:38.462Z,20.70
2022-09-30T09:59:04.226Z,20.70
2022-09-30T10:02:24.352Z,20.75
2022-09-30T10:05:28.583Z,20.79
2022-09-30T10:08:33.913Z,20.82
2022-09-30T10:11:35.836Z,20.77
2022-09-30T10:14:59.608Z,20.83
2022-09-30T10:18:02.018Z,20.81
2022-09-30T10:21:21.517Z,20.83
2022-09-30T10:24:29.655Z,20.87
2022-09-30T10:27:35.015Z,20.91
2022-09-30T10:30:49.008Z,20.95
2022-09-30T10:34:31.098Z,20.99
2022-09-30T10:37:33.223Z,21.01
2022-09-30T10:40:35.657Z,20.93
2022-09-30T10:43:48.136Z,21.07
2022-09-30T10:46:53.511Z,21.04
2022-09-30T10:50:20.681Z,21.11
2022-09-30T10:53:33.025Z,21.09
2022-09-30T10:56:46.643Z,21.16
2022-09-30T10:59:50.200Z,21.14
2022-09-30T11:03:15.386Z,21.18
2022-09-30T11:06:19.503Z,21.19
2022-09-30T11:09:35.707Z,21.22
2022-09-30T11:13:21.920Z,21.30
2022-09-30T11:16:48.584Z,21.36
2022-09-30T11:20:21.999Z,21.40
2022-09-30T11:23:38.699Z,21.46
2022-09-30T11:26:50.535Z,21.43
2022-09-30T11:30:11.955Z,21.42
2022-09-30T11:33:40.229Z,21.47
2022-09-30T11:36:50.030Z,21.51
2022-09-30T11:40:05.290Z,21.53
2022-09-30T11:43:52.481Z,21.55
2022-09-30T11:46:57.587Z,21.57
2022-09-30T11:50:25.069Z,21.54
2022-09-30T11:53:43.346Z,21.50
2022-09-30T11:57:03.620Z,21.60
2022-09-30T12:00:17.742Z,21.68
2022-09-30T12:03:26.849Z,21.67
2022-09-30T12:06:34.798Z,21.69
2022-09-30T12:09:44.970Z,21.71
2022-09-30T12:12:51.990Z,21.68
2022-09-30T12:15:57.794Z,21.65
2022-09-30T12:19:13.520Z,21.70
2022-09-30T12:22:23.780Z,21.66
2022-09-30T12:25:31.587Z,21.70
2022-09-30T12:29:10.330Z,21.71
2022-09-30T12:32:53.717Z,21.81
2022-09-30T12:36:18.278Z,21.80
2022-09-30T12:39:50.737Z,21.80
2022-09-30T12:43:06.735Z,21.77
2022-09-30T12:46:17.673Z,21.83
2022-09-30T12:49:24.216Z,21.79
2022-09-30T12:52:32.499Z,21.79
2022-09-30T12:55:41.734Z,21.78
2022-09-30T12:58:45.794Z,21.71
2022-09-30T13:01:48.863Z,21.93
2022-09-30T13:04:50.870Z,21.95
2022-09-30T13:08:04.787Z,21.95
2022-09-30T13:11:20.841Z,21.86
2022-09-30T13:14:45.286Z,21.92
2022-09-30T13:17:47.186Z,21.92
2022-09-30T13:21:03.589Z,21.94
2022-09-30T13:24:08.087Z,21.91
2022-09-30T13:27:15.532Z,21.84
2022-09-30T13:30:17.396Z,21.88
2022-09-30T13:33:31.864Z,21.90
2022-09-30T13:36:52.013Z,21.83
2022-09-30T13:39:56.858Z,21.85
2022-09-30T13:43:00.328Z,21.83
2022-09-30T13:46:27.214Z,21.69
2022-09-30T13:49:45.736Z,21.87
2022-09-30T13:52:53.815Z,21.92
2022-09-30T13:55:59.219Z,21.95
2022-09-30T13:59:28.438Z,21.89
2022-09-30T14:02:48.812Z,21.86
2022-09-30T14:06:04.272Z,21.83
2022-09-30T14:09:55.826Z,21.83
2022-09-30T14:13:06.144Z,21.83
2022-09-30T14:16:11.092Z,21.80
2022-09-30T14:19:23.004Z,21.76
2022-09-30T14:22:30.142Z,21.68
2022-09-30T14:25:42.473Z,21.58
2022-09-30T14:28:56.808Z,21.74
2022-09-30T14:32:00.024Z,21.73
2022-09-30T14:35:06.893Z,21.68
2022-09-30T14:38:22.376Z,21.66
2022-09-30T14:41:29.773Z,21.65
2022-09-30T14:44:36.486Z,21.52
2022-09-30T14:47:45.824Z,21.60
2022-09-30T14:50:56.069Z,21.59
2022-09-30T14:54:02.606Z,21.57
2022-09-30T14:57:16.100Z,21.47
2022-09-30T15:00:26.844Z,21.48
2022-09-30T15:03:30.514Z,21.28
2022-09-30T15:06:36.667Z,21.42
2022-09-30T15:09:42.392Z,21.32
2022-09-30T15:12:45.564Z,21.32
2022-09-30T15:15:47.588Z,21.31
2022-09-30T15:18:49.645Z,21.27
2022-09-30T15:21:54.259Z,21.25
2022-09-30T15:24:59.740Z,21.22
2022-09-30T15:28:01.942Z,21.12
2022-09-30T15:31:05.411Z,21.15
2022-09-30T15:34:12.970Z,21.11
2022-09-30T15:37:24.358Z,21.07
2022-09-30T15:40:45.158Z,21.01
2022-09-30T15:43:54.166Z,20.99
2022-09-30T15:47:05.209Z,20.95
2022-09-30T15:50:43.435Z,20.91
2022-09-30T15:53:48.088Z,20.83
2022-09-30T15:56:50.151Z,20.83
2022-09-30T16:00:00.965Z,20.79
2022-09-30T16:03:18.986Z,20.76
2022-09-30T16:06:28.420Z,20.74
2022-09-30T16:09:35.977Z,20.69
2022-09-30T16:12:39.008Z,20.69
2022-09-30T16:15:40.983Z,20.64
2022-09-30T16:18:44.125Z,20.61
2022-09-30T16:21:51.013Z,20.59
2022-09-30T16:25:03.276Z,20.57
2022-09-30T16:28:13.676Z,20.53
2022-09-30T16:31:16.436Z,20.51
2022-09-30T16:34:21.926Z,20.48
2022-09-30T16:37:24.056Z,20.46
2022-09-30T16:40:27.354Z,20.42
2022-09-30T16:43:31.617Z,20.38
2022-09-30T16:46:34.231Z,20.34
2022-09-30T16:49:36.356Z,20.31
2022-09-30T16:52:38.400Z,20.29
2022-09-30T16:55:40.683Z,20.31
2022-09-30T16:58:44.176Z,20.28
2022-09-30T17:01:46.433Z,20.31
2022-09-30T17:04:48.489Z,20.29
2022-09-30T17:07:56.881Z,20.25
2022-09-30T17:10:59.102Z,20.28
2022-09-30T17:14:02.704Z,20.27
2022-09-30T17:17:04.771Z,20.22
2022-09-30T17:20:07.235Z,20.24
2022-09-30T17:23:09.215Z,20.21
2022-09-30T17:26:11.192Z,20.16
2022-09-30T17:29:31.299Z,20.19
2022-09-30T17:32:37.467Z,20.16
2022-09-30T17:35:40.565Z,20.06
2022-09-30T17:38:42.550Z,20.05
2022-09-30T17:42:03.111Z,19.99
2022-09-30T17:45:05.457Z,20.02
2022-09-30T17:48:09.127Z,20.00
2022-09-30T17:51:11.234Z,20.01
2022-09-30T17:54:13.165Z,20.02
2022-09-30T17:57:15.174Z,20.01
2022-09-30T18:00:17.555Z,20.01
2022-09-30T18:03:19.487Z,20.01
2022-09-30T18:06:21.571Z,19.97
2022-09-30T18:09:23.922Z,19.96
2022-09-30T18:12:25.937Z,19.96
2022-09-30T18:15:28.278Z,19.90
2022-09-30T18:18:32.315Z,19.80
2022-09-30T18:21:36.467Z,19.75
2022-09-30T18:24:57.082Z,19.80
2022-09-30T18:28:00.200Z,19.71
2022-09-30T18:31:06.389Z,19.79
2022-09-30T18:34:09.457Z,19.77
2022-09-30T18:37:11.411Z,19.81
2022-09-30T18:40:17.758Z,19.80
2022-09-30T18:43:21.373Z,19.81
2022-09-30T18:46:23.438Z,19.66
2022-09-30T18:49:25.680Z,19.65
2022-09-30T18:52:27.682Z,19.61
2022-09-30T18:55:29.987Z,19.48
2022-09-30T18:58:32.187Z,19.50
2022-09-30T19:01:34.872Z,19.47
2022-09-30T19:04:37.258Z,19.44
2022-09-30T19:07:39.535Z,19.34
2022-09-30T19:10:42.343Z,19.34
2022-09-30T19:13:50.999Z,19.35
2022-09-30T19:16:53.069Z,19.31
2022-09-30T19:19:55.132Z,19.29
2022-09-30T19:22:57.700Z,19.33
2022-09-30T19:26:03.174Z,19.31
2022-09-30T19:29:06.159Z,19.25
2022-09-30T19:32:12.958Z,19.22
2022-09-30T19:35:17.214Z,19.27
2022-09-30T19:38:30.809Z,19.13
2022-09-30T19:41:36.987Z,19.22
2022-09-30T19:44:39.130Z,19.19
2022-09-30T19:47:41.301Z,19.18
2022-09-30T19:50:43.903Z,19.12
2022-09-30T19:54:03.739Z,19.28
2022-09-30T19:57:07.837Z,19.27
2022-09-30T20:00:12.681Z,19.26
2022-09-30T20:03:15.530Z,19.26
2022-09-30T20:06:17.892Z,19.27
2022-09-30T20:09:20.233Z,19.24
2022-09-30T20:12:22.532Z,19.30
2022-09-30T20:15:46.073Z,19.24
2022-09-30T20:18:48.444Z,19.28
2022-09-30T20:21:52.262Z,19.27
2022-09-30T20:24:54.305Z,19.28
2022-09-30T20:27:57.585Z,19.41
2022-09-30T20:30:59.701Z,19.47
2022-09-30T20:34:02.256Z,19.43
2022-09-30T20:37:04.299Z,19.34
2022-09-30T20:40:09.449Z,19.40
2022-09-30T20:43:13.402Z,19.39
2022-09-30T20:46:15.723Z,19.38
2022-09-30T20:49:17.807Z,19.32
2022-09-30T20:52:19.842Z,19.35
2022-09-30T20:55:21.869Z,19.31
2022-09-30T20:58:23.989Z,19.26
2022-09-30T21:01:26.255Z,19.17
2022-09-30T21:04:28.278Z,19.16
2022-09-30T21:07:31.183Z,19.13
2022-09-30T21:10:35.878Z,19.20
2022-09-30T21:13:43.185Z,19.19
2022-09-30T21:16:45.276Z,19.17
2022-09-30T21:19:47.303Z,19.16
2022-09-30T21:22:49.737Z,19.09
2022-09-30T21:25:58.808Z,19.12
2022-09-30T21:29:02.258Z,19.12
2022-09-30T21:32:04.385Z,19.04
2022-09-30T21:35:06.874Z,19.05
2022-09-30T21:38:08.859Z,18.95
2022-09-30T21:41:10.917Z,19.01
2022-09-30T21:44:15.438Z,18.82
2022-09-30T21:47:17.983Z,19.00
2022-09-30T21:50:19.960Z,18.79
2022-09-30T21:53:27.461Z,18.95
2022-09-30T21:56:29.945Z,18.89
2022-09-30T21:59:33.266Z,18.89
2022-09-30T22:02:36.824Z,18.90
2022-09-30T22:05:38.957Z,18.77
2022-09-30T22:08:41.153Z,18.93
2022-09-30T22:11:44.394Z,19.01
2022-09-30T22:14:46.387Z,19.07
2022-09-30T22:17:51.217Z,19.19
2022-09-30T22:20:53.282Z,19.19
2022-09-30T22:23:55.258Z,19.12
2022-09-30T22:26:57.611Z,19.06
2022-09-30T22:30:00.137Z,19.13
2022-09-30T22:33:20.674Z,19.08
2022-09-30T22:36:41.464Z,19.00
2022-09-30T22:39:43.618Z,19.04
2022-09-30T22:42:46.312Z,19.07
2022-09-30T22:45:48.504Z,19.05
2022-09-30T22:48:50.595Z,19.09
2022-09-30T22:51:53.985Z,19.05
2022-09-30T22:54:56.032Z,19.09
2022-09-30T22:57:58.410Z,19.09
2022-09-30T23:01:00.597Z,19.08
2022-09-30T23:04:03.366Z,18.98
2022-09-30T23:07:07.737Z,19.06
2022-09-30T23:10:10.199Z,19.09
2022-09-30T23:13:13.457Z,19.04
2022-09-30T23:16:16.886Z,19.03
2022-09-30T23:19:20.326Z,19.04
2022-09-30T23:22:22.631Z,19.00
2022-09-30T23:25:24.685Z,19.00
2022-09-30T23:28:27.310Z,18.99
2022-09-30T23:31:30.415Z,18.94
2022-09-30T23:34:32.609Z,18.94
2022-09-30T23:37:35.575Z,18.95
2022-09-30T23:40:48.859Z,19.03
2022-09-30T23:43:50.917Z,19.01
2022-09-30T23:47:11.958Z,19.02
2022-09-30T23:50:14.209Z,18.95
2022-09-30T23:53:16.369Z,19.01
2022-09-30T23:56:19.535Z,18.91
2022-09-30T23:59:21.533Z,18.99
